Flight Track Log - Related Links

Times and Time Zones

All times are in EDT time to prevent confusion due to time zone crossing. See the SKW6432 flight status page for this flight to view local times or setup timezone preferences in your user account.

Time Position Orientation Groundspeed Altitude Reporting Facility
EDT Latitude Longitude Course Direction KTS MPH feet Rate Location/Type
Wed 10:51:59 PM 33.6333 -117.8833 180° South 166 191 2,600  Level Southern California TRACON
Wed 10:52:44 PM 33.6003 -117.8986 201° Southwest 181 208 3,000 1,755 Climbing Los Angeles Center
Wed 10:53:45 PM 33.5347 -117.9353 205° Southwest 248 285 5,700 3,268 Climbing Los Angeles Center
Wed 10:54:00 PM 33.4070 -118.3361 239° Southwest  Level FlightAware Approximate
Wed 10:54:47 PM 33.4575 -117.9992 215° Southwest 274 315 9,700  Level Los Angeles Center
Wed 10:55:00 PM 33.4036 -118.4360 328° Northwest  Level FlightAware Approximate
Wed 10:55:49 PM 33.3814 -118.0586 213° Southwest 310 357 12,000  Level Los Angeles Center
Wed 10:56:00 PM 33.4944 -118.5222 337° Northwest  Level FlightAware Approximate
Wed 10:56:50 PM 33.3381 -118.1564 242° Southwest 345 397 14,700  Level Los Angeles Center
Wed 10:57:00 PM 33.5744 -118.5910 320° Northwest  Level FlightAware Approximate
Wed 10:57:52 PM 33.3803 -118.2600 296° West 351 404 17,400  Level Los Angeles Center
Wed 10:58:54 PM 33.4478 -118.3503 312° West 361 415 19,800 2,293 Climbing Los Angeles Center
Wed 10:59:55 PM 33.5194 -118.4442 312° West 374 430 22,100 2,195 Climbing Los Angeles Center
Wed 11:00:57 PM 33.5919 -118.5419 312° West 388 447 24,300 1,984 Climbing Los Angeles Center
Wed 11:01:59 PM 33.6678 -118.6414 313° West 396 456 26,200 1,707 Climbing Los Angeles Center
Wed 11:03:00 PM 33.7450 -118.7442 312° West 408 470 27,800 1,422 Climbing Los Angeles Center
Wed 11:04:14 PM 33.8236 -118.8478 312° West 417 480 29,400 1,632 Climbing Los Angeles Center
Wed 11:05:16 PM 33.9369 -118.9983 312° West 431 496 31,500 1,756 Climbing Los Angeles Center
Wed 11:06:17 PM 34.0167 -119.1064 312° West 431 496 33,000 1,463 Climbing Los Angeles Center
Wed 11:07:19 PM 34.0969 -119.2153 312° West 434 499 34,500 1,452 Climbing Los Angeles Center
Wed 11:08:21 PM 34.1825 -119.3167 316° Northwest 433 498 36,000 1,324 Climbing Los Angeles Center
Wed 11:09:35 PM 34.2697 -119.4133 318° Northwest 427 491 37,500 889 Climbing Los Angeles Center
Wed 11:10:36 PM 34.3553 -119.5117 317° Northwest 425 489 38,000 244 Climbing Los Angeles Center
Wed 11:11:38 PM 34.4439 -119.6119 317° Northwest 434 499 38,000  Level Los Angeles Center
Wed 11:12:40 PM 34.5719 -119.7572 317° Northwest 450 518 38,000  Level Los Angeles Center
Wed 11:13:41 PM 34.6650 -119.8600 318° Northwest 451 519 38,000  Level Los Angeles Center
Wed 11:14:43 PM 34.7547 -119.9617 317° Northwest 442 509 38,000  Level Los Angeles Center
Wed 11:15:45 PM 34.8422 -120.0625 317° Northwest 434 499 38,000  Level Los Angeles Center
Wed 11:16:46 PM 34.9378 -120.1728 317° Northwest 430 495 38,000  Level Los Angeles Center
Wed 11:17:48 PM 35.0228 -120.2711 317° Northwest 427 491 38,000  Level Los Angeles Center
Wed 11:18:50 PM 35.1072 -120.3689 317° Northwest 425 489 38,000  Level Los Angeles Center
Wed 11:19:52 PM 35.1914 -120.4661 317° Northwest 419 482 38,000  Level Los Angeles Center
Wed 11:20:53 PM 35.2744 -120.5658 316° Northwest 422 486 38,000  Level Los Angeles Center
Wed 11:21:55 PM 35.3606 -120.6611 318° Northwest 420 483 38,000  Level Los Angeles Center
Wed 11:22:55 PM 35.4714 -120.7644 323° Northwest 419 482 38,000  Level Oakland Center
Wed 11:23:56 PM 35.5644 -120.8503 323° Northwest 418 481 38,000  Level Oakland Center
Wed 11:24:57 PM 35.6583 -120.9375 323° Northwest 422 486 38,000  Level Oakland Center
Wed 11:25:59 PM 35.7503 -121.0236 323° Northwest 419 482 38,000  Level Oakland Center
Wed 11:27:00 PM 35.8433 -121.1106 323° Northwest 421 484 38,000  Level Oakland Center
Wed 11:28:01 PM 35.9367 -121.1958 324° Northwest 420 483 38,000  Level Oakland Center
Wed 11:29:02 PM 36.0303 -121.2825 323° Northwest 425 489 38,000  Level Oakland Center
Wed 11:30:03 PM 36.1236 -121.3678 324° Northwest 424 488 38,000 -1,131 Level Oakland Center
Wed 11:31:04 PM 36.2197 -121.4575 323° Northwest 446 513 35,700 -2,607 Descending Oakland Center
Wed 11:32:05 PM 36.3114 -121.5467 322° Northwest 424 488 32,700 -3,000 Descending Oakland Center
Wed 11:33:06 PM 36.4011 -121.6336 322° Northwest 412 474 29,600 -3,000 Descending Oakland Center
Wed 11:34:07 PM 36.4889 -121.7175 322° Northwest 401 461 26,600 -2,951 Descending Oakland Center
Wed 11:35:08 PM 36.5792 -121.8064 322° Northwest 417 480 23,600 -3,273 Descending Oakland Center
Wed 11:35:24 PM 36.6167 -121.8500 317° Northwest 427 491 22,400 -3,079 Descending Northern Cal TRACON
Wed 11:36:24 PM 36.7167 -121.9333 326° Northwest 428 493 19,700 -2,800 Descending Northern Cal TRACON
Wed 11:37:24 PM 36.8167 -121.9833 338° Northwest 396 456 16,800 -3,028 Descending Northern Cal TRACON
Wed 11:38:11 PM 36.9011 -122.0058 348° North 383 441 14,300 -2,667 Descending Oakland Center
Wed 11:39:12 PM 37.0039 -122.0331 348° North 378 435 12,000 -2,066 Descending Oakland Center
Wed 11:40:13 PM 37.1031 -122.0583 349° North 368 423 10,100 -984 Descending Oakland Center
Wed 11:41:14 PM 37.1853 -122.0792 349° North 312 359 10,000 -344 Descending Oakland Center
Wed 11:42:15 PM 37.2675 -122.1006 348° North 302 348 9,400 -934 Descending Oakland Center
Wed 11:43:16 PM 37.3478 -122.1217 348° North 297 342 8,100 -1,525 Descending Oakland Center
Wed 11:44:17 PM 37.4242 -122.1425 348° North 286 329 6,300 -1,574 Descending Oakland Center
Wed 11:45:18 PM 37.4936 -122.1600 349° North 264 304 4,900 -1,475 Descending Oakland Center
Wed 11:46:19 PM 37.5386 -122.2006 324° Northwest 211 243 3,300 -1,574 Descending Oakland Center

Login

Don't have an account? Register now (free) for customized features, flight alerts, and more!